createdAt,value
2018-06-28T00:02:04.371Z,1.60
2018-06-28T00:04:31.385Z,1.70
2018-06-28T00:06:58.378Z,1.97
2018-06-28T00:09:25.357Z,1.43
2018-06-28T00:11:52.349Z,1.53
2018-06-28T00:14:19.337Z,1.73
2018-06-28T00:16:46.353Z,1.87
2018-06-28T00:19:13.337Z,1.80
2018-06-28T00:21:40.331Z,1.87
2018-06-28T00:24:07.322Z,2.03
2018-06-28T00:26:34.362Z,1.63
2018-06-28T00:29:01.338Z,1.70
2018-06-28T00:31:28.310Z,1.70
2018-06-28T00:33:55.325Z,1.60
2018-06-28T00:36:22.317Z,1.53
2018-06-28T00:38:49.304Z,1.80
2018-06-28T00:41:16.317Z,2.00
2018-06-28T00:43:43.314Z,1.60
2018-06-28T00:46:10.329Z,1.97
2018-06-28T00:48:37.317Z,1.73
2018-06-28T00:51:04.359Z,1.80
2018-06-28T00:53:31.403Z,1.50
2018-06-28T00:55:58.396Z,1.80
2018-06-28T00:58:25.653Z,1.57
2018-06-28T01:00:53.097Z,2.10
2018-06-28T01:03:20.113Z,1.93
2018-06-28T01:05:47.122Z,2.00
2018-06-28T01:08:14.106Z,1.70
2018-06-28T01:10:41.109Z,2.07
2018-06-28T01:13:08.177Z,2.00
2018-06-28T01:15:35.164Z,2.23
2018-06-28T01:18:02.185Z,2.13
2018-06-28T01:20:29.158Z,1.93
2018-06-28T01:22:56.177Z,2.00
2018-06-28T01:25:23.169Z,2.00
2018-06-28T01:27:50.364Z,2.30
2018-06-28T01:30:17.336Z,2.27
2018-06-28T01:32:44.885Z,2.03
2018-06-28T01:35:12.014Z,1.80
2018-06-28T01:37:39.022Z,2.27
2018-06-28T01:40:06.061Z,2.20
2018-06-28T01:43:39.857Z,2.70
2018-06-28T01:46:06.941Z,2.20
2018-06-28T01:48:34.241Z,2.40
2018-06-28T01:51:01.274Z,2.40
2018-06-28T01:53:28.605Z,2.40
2018-06-28T01:55:55.850Z,2.27
2018-06-28T01:58:22.870Z,2.20
2018-06-28T02:00:49.890Z,2.90
2018-06-28T02:03:17.337Z,2.00
2018-06-28T02:05:44.665Z,2.22
2018-06-28T02:08:11.660Z,2.03
2018-06-28T02:10:38.666Z,2.60
2018-06-28T02:13:05.720Z,2.10
2018-06-28T02:15:33.425Z,2.40
2018-06-28T02:18:00.411Z,2.17
2018-06-28T02:20:27.463Z,2.00
2018-06-28T02:22:54.714Z,2.67
2018-06-28T02:25:21.810Z,2.77
2018-06-28T02:27:48.817Z,2.53
2018-06-28T02:30:16.466Z,2.07
2018-06-28T02:32:43.605Z,2.40
2018-06-28T02:35:10.621Z,2.60
2018-06-28T02:37:37.627Z,2.40
2018-06-28T02:40:04.959Z,2.77
2018-06-28T02:42:31.957Z,2.20
2018-06-28T02:44:59.065Z,2.70
2018-06-28T02:47:26.365Z,2.80
2018-06-28T02:49:53.453Z,2.10
2018-06-28T02:52:20.599Z,2.33
2018-06-28T02:54:47.609Z,2.20
2018-06-28T02:57:14.593Z,2.52
2018-06-28T02:59:41.618Z,2.50
2018-06-28T03:02:08.590Z,2.00
2018-06-28T03:04:35.647Z,2.97
2018-06-28T03:07:03.070Z,2.20
2018-06-28T03:09:30.141Z,2.30
2018-06-28T03:11:57.138Z,2.22
2018-06-28T03:14:24.134Z,2.30
2018-06-28T03:16:51.142Z,2.58
2018-06-28T03:19:18.157Z,2.20
2018-06-28T03:21:45.141Z,2.70
2018-06-28T03:24:12.126Z,2.67
2018-06-28T03:26:39.398Z,2.60
2018-06-28T03:29:06.581Z,2.35
2018-06-28T03:31:33.565Z,2.70
2018-06-28T03:34:00.529Z,2.10
2018-06-28T03:36:27.514Z,3.07
2018-06-28T03:38:54.505Z,2.30
2018-06-28T03:41:21.521Z,2.30
2018-06-28T03:43:48.514Z,2.62
2018-06-28T03:46:15.484Z,2.40
2018-06-28T03:48:42.497Z,3.08
2018-06-28T03:51:09.481Z,2.70
2018-06-28T03:53:36.484Z,2.70
2018-06-28T03:56:03.549Z,2.70
2018-06-28T03:58:30.513Z,3.58
2018-06-28T04:00:57.518Z,3.30
2018-06-28T04:03:24.661Z,2.80
2018-06-28T04:05:51.653Z,2.70
2018-06-28T04:08:18.613Z,3.25
2018-06-28T04:10:45.849Z,2.92
2018-06-28T04:13:12.821Z,3.25
2018-06-28T04:15:39.825Z,3.12
2018-06-28T04:18:06.829Z,3.80
2018-06-28T04:20:33.869Z,4.00
2018-06-28T04:23:00.857Z,2.97
2018-06-28T04:25:27.842Z,2.70
2018-06-28T04:27:54.825Z,3.30
2018-06-28T04:30:21.814Z,3.10
2018-06-28T04:32:48.839Z,3.10
2018-06-28T04:35:15.831Z,3.37
2018-06-28T04:37:42.809Z,3.37
2018-06-28T04:40:09.798Z,3.07
2018-06-28T04:42:36.917Z,3.70
2018-06-28T04:45:03.997Z,2.90
2018-06-28T04:47:31.025Z,3.27
2018-06-28T04:49:58.086Z,3.60
2018-06-28T04:52:24.982Z,2.87
2018-06-28T04:54:52.685Z,3.33
2018-06-28T04:57:19.685Z,2.63
2018-06-28T04:59:46.676Z,3.70
2018-06-28T05:02:13.690Z,3.83
2018-06-28T05:04:40.688Z,3.80
2018-06-28T05:07:07.824Z,3.70
2018-06-28T05:09:34.771Z,3.50
2018-06-28T05:12:01.769Z,3.27
2018-06-28T05:14:28.826Z,3.77
2018-06-28T05:16:55.789Z,3.80
2018-06-28T05:19:23.224Z,3.50
2018-06-28T05:21:50.221Z,3.07
2018-06-28T05:24:17.246Z,3.97
2018-06-28T05:26:44.249Z,3.50
2018-06-28T05:29:11.247Z,3.50
2018-06-28T05:31:38.294Z,4.10
2018-06-28T05:34:05.292Z,3.70
2018-06-28T05:36:32.360Z,4.00
2018-06-28T05:38:59.257Z,4.17
2018-06-28T05:41:26.317Z,3.87
2018-06-28T05:43:53.270Z,4.13
2018-06-28T05:46:20.310Z,3.43
2018-06-28T05:48:47.301Z,3.83
2018-06-28T05:51:14.314Z,4.00
2018-06-28T05:53:41.289Z,3.87
2018-06-28T05:56:08.281Z,4.13
2018-06-28T05:58:35.269Z,3.90
2018-06-28T06:01:02.277Z,3.43
2018-06-28T06:03:29.254Z,3.70
2018-06-28T06:05:56.281Z,3.67
2018-06-28T06:08:23.249Z,3.90
2018-06-28T06:10:50.217Z,4.43
2018-06-28T06:13:17.204Z,4.00
2018-06-28T06:15:44.173Z,3.70
2018-06-28T06:18:11.153Z,3.13
2018-06-28T06:20:38.153Z,3.40
2018-06-28T06:23:05.141Z,3.80
2018-06-28T06:25:32.174Z,3.17
2018-06-28T06:27:59.165Z,3.33
2018-06-28T06:30:26.186Z,3.23
2018-06-28T06:32:53.398Z,4.30
2018-06-28T06:35:20.381Z,3.60
2018-06-28T06:37:47.386Z,3.60
2018-06-28T06:40:14.429Z,4.43
2018-06-28T06:42:41.408Z,3.70
2018-06-28T06:45:08.393Z,3.00
2018-06-28T06:47:35.425Z,3.63
2018-06-28T06:50:02.449Z,3.40
2018-06-28T06:52:29.450Z,3.70
2018-06-28T06:54:56.465Z,3.43
2018-06-28T06:57:23.486Z,3.53
2018-06-28T06:59:50.464Z,3.70
2018-06-28T07:02:17.477Z,2.63
2018-06-28T07:04:44.485Z,3.40
2018-06-28T07:07:11.496Z,3.40
2018-06-28T07:09:38.510Z,3.07
2018-06-28T07:12:05.601Z,3.40
2018-06-28T07:14:32.570Z,3.27
2018-06-28T07:16:59.578Z,2.90
2018-06-28T07:19:26.549Z,2.90
2018-06-28T07:21:53.547Z,3.23
2018-06-28T07:24:20.758Z,2.73
2018-06-28T07:26:48.030Z,2.80
2018-06-28T07:29:15.013Z,3.10
2018-06-28T07:31:41.993Z,3.40
2018-06-28T07:34:09.134Z,3.03
2018-06-28T07:36:36.050Z,2.80
2018-06-28T07:39:05.282Z,3.30
2018-06-28T07:41:32.242Z,2.70
2018-06-28T07:43:59.273Z,2.90
2018-06-28T07:46:26.293Z,2.13
2018-06-28T07:48:53.294Z,3.40
2018-06-28T07:51:20.258Z,2.60
2018-06-28T07:53:47.249Z,2.93
2018-06-28T07:56:14.225Z,3.23
2018-06-28T07:58:41.222Z,3.10
2018-06-28T08:01:08.305Z,2.70
2018-06-28T08:03:35.331Z,2.27
2018-06-28T08:06:02.343Z,2.50
2018-06-28T08:08:29.324Z,2.63
2018-06-28T08:10:56.325Z,2.40
2018-06-28T08:13:23.477Z,2.60
2018-06-28T08:15:50.499Z,3.00
2018-06-28T08:18:17.780Z,3.03
2018-06-28T08:20:44.742Z,2.90
2018-06-28T08:23:11.769Z,2.30
2018-06-28T08:25:38.758Z,2.50
2018-06-28T08:28:06.369Z,2.73
2018-06-28T08:30:33.429Z,2.70
2018-06-28T08:33:00.430Z,2.20
2018-06-28T08:35:27.398Z,2.77
2018-06-28T08:37:54.450Z,3.20
2018-06-28T08:40:21.402Z,3.10
2018-06-28T08:42:48.389Z,2.70
2018-06-28T08:45:15.430Z,2.80
2018-06-28T08:47:42.558Z,2.30
2018-06-28T08:50:09.550Z,2.00
2018-06-28T08:52:36.521Z,2.20
2018-06-28T08:57:46.148Z,2.30
2018-06-28T09:00:13.113Z,2.73
2018-06-28T09:02:40.181Z,2.50
2018-06-28T09:05:07.213Z,2.17
2018-06-28T09:07:34.198Z,2.60
2018-06-28T09:10:01.198Z,2.43
2018-06-28T09:12:28.182Z,2.70
2018-06-28T09:14:55.313Z,2.00
2018-06-28T09:17:22.298Z,2.00
2018-06-28T09:19:49.294Z,2.40
2018-06-28T09:22:16.273Z,2.10
2018-06-28T09:24:43.249Z,2.10
2018-06-28T09:27:10.234Z,1.70
2018-06-28T09:29:37.222Z,2.30
2018-06-28T09:32:04.305Z,2.03
2018-06-28T09:34:31.286Z,1.70
2018-06-28T09:36:58.258Z,1.87
2018-06-28T09:39:25.273Z,2.03
2018-06-28T09:41:52.232Z,2.10
2018-06-28T09:44:19.304Z,2.43
2018-06-28T09:46:46.277Z,2.50
2018-06-28T09:49:13.450Z,2.47
2018-06-28T09:51:40.468Z,2.30
2018-06-28T09:54:07.478Z,2.40
2018-06-28T09:56:34.442Z,2.80
2018-06-28T09:59:01.441Z,2.90
2018-06-28T10:01:28.398Z,3.00
2018-06-28T10:03:55.469Z,3.00
2018-06-28T10:06:22.430Z,2.50
2018-06-28T10:08:49.414Z,3.30
2018-06-28T10:11:16.376Z,2.53
2018-06-28T10:13:43.329Z,2.40
2018-06-28T10:16:10.353Z,2.30
2018-06-28T10:18:37.314Z,2.10
2018-06-28T10:21:04.374Z,2.43
2018-06-28T10:23:31.349Z,2.20
2018-06-28T10:25:58.329Z,2.27
2018-06-28T10:28:25.341Z,2.50
2018-06-28T10:30:52.378Z,2.30
2018-06-28T10:33:19.362Z,2.33
2018-06-28T10:35:46.341Z,2.07
2018-06-28T10:38:13.305Z,2.40
2018-06-28T10:40:40.276Z,1.90
2018-06-28T10:43:07.270Z,1.50
2018-06-28T10:45:34.249Z,2.40
2018-06-28T10:48:01.417Z,2.10
2018-06-28T10:50:28.473Z,2.13
2018-06-28T10:52:55.435Z,2.13
2018-06-28T10:55:22.438Z,1.87
2018-06-28T10:57:49.401Z,1.77
2018-06-28T11:00:16.757Z,1.70
2018-06-28T11:02:43.793Z,1.87
2018-06-28T11:05:11.054Z,2.20
2018-06-28T11:07:38.354Z,1.40
2018-06-28T11:10:05.863Z,1.77
2018-06-28T11:12:32.829Z,1.90
2018-06-28T11:14:59.817Z,2.07
2018-06-28T11:17:26.781Z,2.03
2018-06-28T11:19:53.973Z,1.90
2018-06-28T11:22:20.989Z,1.83
2018-06-28T11:24:47.997Z,2.00
2018-06-28T11:27:15.098Z,2.10
2018-06-28T11:29:42.094Z,1.57
2018-06-28T11:32:09.085Z,2.10
2018-06-28T11:34:36.082Z,2.23
2018-06-28T11:37:03.233Z,1.93
2018-06-28T11:39:30.324Z,2.00
2018-06-28T11:41:57.285Z,2.20
2018-06-28T11:44:24.258Z,1.90
2018-06-28T11:46:51.281Z,1.70
2018-06-28T11:49:18.249Z,1.90
2018-06-28T11:51:45.249Z,1.63
2018-06-28T11:54:12.209Z,2.50
2018-06-28T11:56:39.229Z,2.67
2018-06-28T11:59:06.336Z,2.40
2018-06-28T12:01:33.321Z,1.90
2018-06-28T12:04:00.284Z,2.20
2018-06-28T12:06:27.265Z,2.63
2018-06-28T12:08:54.233Z,2.20
2018-06-28T12:11:21.245Z,2.30
2018-06-28T12:13:48.283Z,2.10
2018-06-28T12:16:15.280Z,3.10
2018-06-28T12:18:42.244Z,2.10
2018-06-28T12:21:09.496Z,2.67
2018-06-28T12:23:36.478Z,3.20
2018-06-28T12:26:03.645Z,1.90
2018-06-28T12:28:30.624Z,2.17
2018-06-28T12:30:57.694Z,1.90
2018-06-28T12:33:24.750Z,2.13
2018-06-28T12:35:57.413Z,1.67
2018-06-28T12:38:24.413Z,2.50
2018-06-28T12:40:51.449Z,1.80
2018-06-28T12:43:18.445Z,1.60
2018-06-28T12:45:45.414Z,2.07
2018-06-28T12:48:13.862Z,2.00
2018-06-28T12:50:40.881Z,1.70
2018-06-28T12:53:09.132Z,2.07
2018-06-28T12:56:16.866Z,2.13
2018-06-28T12:58:44.304Z,1.80
2018-06-28T13:01:11.298Z,2.00
2018-06-28T13:03:38.270Z,2.07
2018-06-28T13:06:05.293Z,2.00
2018-06-28T13:08:32.293Z,2.00
2018-06-28T13:10:59.273Z,2.10
2018-06-28T13:13:26.297Z,1.30
2018-06-28T13:15:53.285Z,1.57
2018-06-28T13:18:20.284Z,1.70
2018-06-28T13:20:47.310Z,1.77
2018-06-28T13:23:14.674Z,1.50
2018-06-28T13:25:41.648Z,1.83
2018-06-28T13:28:08.763Z,1.53
2018-06-28T13:30:35.773Z,1.90
2018-06-28T13:33:02.789Z,1.60
2018-06-28T13:35:29.758Z,1.53
2018-06-28T13:37:56.733Z,2.00
2018-06-28T13:40:23.717Z,1.40
2018-06-28T13:42:50.718Z,1.60
2018-06-28T13:45:17.725Z,1.60
2018-06-28T13:47:44.794Z,1.43
2018-06-28T13:50:11.762Z,1.90
2018-06-28T13:52:38.750Z,1.83
2018-06-28T13:55:05.776Z,2.20
2018-06-28T13:57:32.773Z,2.00
2018-06-28T13:59:59.769Z,1.23
2018-06-28T14:02:27.026Z,1.90
2018-06-28T14:04:54.012Z,1.80
2018-06-28T14:07:21.093Z,1.67
2018-06-28T14:09:48.073Z,1.80
2018-06-28T14:12:15.061Z,1.13
2018-06-28T14:14:42.297Z,1.47
2018-06-28T14:17:09.318Z,1.47
2018-06-28T14:19:36.326Z,1.73
2018-06-28T14:22:03.418Z,1.27
2018-06-28T14:24:30.409Z,2.20
2018-06-28T14:26:57.697Z,2.20
2018-06-28T14:29:24.703Z,2.37
2018-06-28T14:31:52.694Z,2.20
2018-06-28T14:34:19.657Z,2.07
2018-06-28T14:36:46.649Z,1.60
2018-06-28T14:39:13.642Z,1.73
2018-06-28T14:41:40.698Z,1.83
2018-06-28T14:44:07.717Z,1.83
2018-06-28T14:46:34.677Z,1.40
2018-06-28T14:49:01.670Z,1.30
2018-06-28T14:51:28.717Z,1.40
2018-06-28T14:53:55.753Z,1.23
2018-06-28T14:56:22.844Z,1.63
2018-06-28T14:58:49.837Z,1.57
2018-06-28T15:01:16.816Z,1.60
2018-06-28T15:03:43.825Z,1.30
2018-06-28T15:06:10.913Z,1.53
2018-06-28T15:08:37.905Z,1.53
2018-06-28T15:11:04.933Z,1.50
2018-06-28T15:13:31.921Z,1.70
2018-06-28T15:15:58.909Z,1.57
2018-06-28T15:18:25.885Z,1.30
2018-06-28T15:20:52.933Z,1.57
2018-06-28T15:23:20.216Z,1.90
2018-06-28T15:25:47.271Z,1.70
2018-06-28T15:28:14.658Z,1.17
2018-06-28T15:30:41.625Z,1.40
2018-06-28T15:33:08.700Z,1.23
2018-06-28T15:35:35.744Z,1.73
2018-06-28T15:38:02.745Z,1.60
2018-06-28T15:40:29.741Z,1.73
2018-06-28T15:42:56.744Z,1.90
2018-06-28T15:45:23.733Z,1.60
2018-06-28T15:47:50.721Z,0.90
2018-06-28T15:50:17.709Z,1.50
2018-06-28T15:52:44.805Z,1.70
2018-06-28T15:55:11.865Z,1.27
2018-06-28T15:57:38.860Z,1.20
2018-06-28T16:00:06.482Z,1.50
2018-06-28T16:02:33.557Z,1.30
2018-06-28T16:05:00.657Z,1.37
2018-06-28T16:07:27.624Z,1.20
2018-06-28T16:09:54.614Z,1.67
2018-06-28T16:12:21.658Z,1.47
2018-06-28T16:14:48.657Z,1.07
2018-06-28T16:17:15.724Z,1.20
2018-06-28T16:19:42.652Z,1.40
2018-06-28T16:22:09.649Z,1.23
2018-06-28T16:24:36.643Z,1.40
2018-06-28T16:27:03.705Z,1.57
2018-06-28T16:29:30.717Z,1.60
2018-06-28T16:31:57.709Z,1.57
2018-06-28T16:34:24.748Z,1.20
2018-06-28T16:36:51.954Z,1.57
2018-06-28T16:39:18.947Z,1.43
2018-06-28T16:41:45.941Z,1.50
2018-06-28T16:44:12.942Z,1.30
2018-06-28T16:46:39.977Z,1.40
2018-06-28T16:49:07.349Z,1.70
2018-06-28T16:51:34.546Z,1.70
2018-06-28T16:54:01.655Z,1.60
2018-06-28T16:56:29.461Z,1.93
2018-06-28T16:58:56.561Z,1.43
2018-06-28T17:01:23.568Z,1.60
2018-06-28T17:03:50.595Z,1.80
2018-06-28T17:06:17.681Z,1.77
2018-06-28T17:08:44.686Z,1.77
2018-06-28T17:11:11.853Z,2.50
2018-06-28T17:13:38.985Z,1.33
2018-06-28T17:16:06.001Z,1.90
2018-06-28T17:18:33.044Z,1.30
2018-06-28T17:21:00.049Z,1.50
2018-06-28T17:23:27.045Z,1.10
2018-06-28T17:25:54.445Z,1.20
2018-06-28T17:28:21.421Z,1.60
2018-06-28T17:30:48.426Z,1.13
2018-06-28T17:33:15.403Z,1.43
2018-06-28T17:35:42.406Z,1.10
2018-06-28T17:38:09.404Z,1.10
2018-06-28T17:40:36.409Z,1.23
2018-06-28T17:43:03.408Z,1.67
2018-06-28T17:45:30.405Z,1.50
2018-06-28T17:47:57.394Z,1.53
2018-06-28T17:50:24.409Z,0.90
2018-06-28T17:52:51.666Z,1.00
2018-06-28T17:55:18.646Z,1.37
2018-06-28T17:57:45.657Z,1.10
2018-06-28T18:00:12.665Z,1.27
2018-06-28T18:02:39.657Z,1.00
2018-06-28T18:05:06.947Z,1.60
2018-06-28T18:07:33.949Z,0.93
2018-06-28T18:10:00.920Z,1.40
2018-06-28T18:12:27.953Z,0.97
2018-06-28T18:14:54.959Z,1.30
2018-06-28T18:17:21.941Z,1.00
2018-06-28T18:19:48.945Z,1.20
2018-06-28T18:22:15.986Z,1.70
2018-06-28T18:24:43.001Z,1.20
2018-06-28T18:27:09.998Z,1.43
2018-06-28T18:29:36.973Z,1.17
2018-06-28T18:32:03.969Z,1.17
2018-06-28T18:34:30.972Z,1.33
2018-06-28T18:36:57.965Z,1.60
2018-06-28T18:39:24.949Z,1.50
2018-06-28T18:41:51.971Z,1.60
2018-06-28T18:44:18.954Z,1.40
2018-06-28T18:46:45.972Z,1.37
2018-06-28T18:49:12.957Z,1.40
2018-06-28T18:51:39.969Z,1.40
2018-06-28T18:54:07.369Z,1.20
2018-06-28T18:56:34.373Z,1.30
2018-06-28T18:59:01.358Z,1.70
2018-06-28T19:01:28.444Z,1.50
2018-06-28T19:03:55.458Z,1.30
2018-06-28T19:06:22.704Z,1.70
2018-06-28T19:08:49.730Z,1.30
2018-06-28T19:11:16.793Z,1.43
2018-06-28T19:13:49.357Z,1.80
2018-06-28T19:16:22.081Z,1.30
2018-06-28T19:18:49.163Z,1.20
2018-06-28T19:21:21.905Z,1.27
2018-06-28T19:23:50.085Z,1.50
2018-06-28T19:26:17.704Z,1.30
2018-06-28T19:28:45.043Z,1.40
2018-06-28T19:33:22.457Z,1.77
2018-06-28T19:35:50.227Z,1.80
2018-06-28T19:38:17.201Z,1.53
2018-06-28T19:40:50.050Z,1.80
2018-06-28T19:43:17.052Z,1.80
2018-06-28T19:45:44.065Z,1.80
2018-06-28T19:48:11.081Z,1.80
2018-06-28T19:50:43.734Z,1.77
2018-06-28T19:53:12.376Z,2.30
2018-06-28T19:55:39.361Z,2.10
2018-06-28T19:58:06.345Z,1.70
2018-06-28T20:00:39.042Z,2.33
2018-06-28T20:03:11.813Z,2.30
2018-06-28T20:05:38.846Z,2.20
2018-06-28T20:08:05.848Z,1.97
2018-06-28T20:10:32.869Z,1.87
2018-06-28T20:13:05.409Z,2.63
2018-06-28T20:15:50.657Z,1.60
2018-06-28T20:18:23.313Z,2.30
2018-06-28T20:20:50.306Z,2.33
2018-06-28T20:23:17.289Z,2.40
2018-06-28T20:25:44.302Z,2.90
2018-06-28T20:28:16.974Z,2.73
2018-06-28T20:30:49.786Z,3.23
2018-06-28T20:33:22.481Z,3.50
2018-06-28T20:35:49.498Z,2.50
2018-06-28T20:38:16.470Z,2.60
2018-06-28T20:40:43.513Z,2.97
2018-06-28T20:43:10.549Z,3.37
2018-06-28T20:45:37.613Z,2.60
2018-06-28T20:48:04.798Z,3.17
2018-06-28T20:50:31.843Z,3.97
2018-06-28T20:52:58.817Z,3.20
2018-06-28T20:55:25.817Z,2.73
2018-06-28T20:57:52.953Z,2.33
2018-06-28T21:00:19.957Z,2.87
2018-06-28T21:02:47.089Z,2.57
2018-06-28T21:05:14.205Z,3.10
2018-06-28T21:07:41.233Z,3.30
2018-06-28T21:10:08.398Z,3.23
2018-06-28T21:12:35.481Z,3.30
2018-06-28T21:15:02.566Z,4.03
2018-06-28T21:17:29.573Z,4.67
2018-06-28T21:19:56.593Z,3.73
2018-06-28T21:22:23.637Z,3.70
2018-06-28T21:24:50.697Z,3.50
2018-06-28T21:27:17.701Z,3.87
2018-06-28T21:29:45.224Z,4.17
2018-06-28T21:32:12.225Z,3.40
2018-06-28T21:34:39.290Z,4.10
2018-06-28T21:37:06.417Z,3.60
2018-06-28T21:39:33.389Z,3.13
2018-06-28T21:42:00.477Z,3.60
2018-06-28T21:44:27.524Z,3.60
2018-06-28T21:46:54.537Z,3.70
2018-06-28T21:49:21.557Z,3.47
2018-06-28T21:51:48.592Z,3.80
2018-06-28T21:54:15.561Z,4.00
2018-06-28T21:56:42.554Z,3.73
2018-06-28T21:59:09.793Z,3.90
2018-06-28T22:01:36.978Z,3.40
2018-06-28T22:04:04.006Z,3.60
2018-06-28T22:06:30.977Z,4.13
2018-06-28T22:08:57.954Z,2.90
2018-06-28T22:11:25.092Z,3.83
2018-06-28T22:13:52.085Z,3.43
2018-06-28T22:16:19.105Z,3.53
2018-06-28T22:18:46.153Z,3.87
2018-06-28T22:21:13.129Z,3.57
2018-06-28T22:23:40.325Z,3.00
2018-06-28T22:26:07.427Z,3.37
2018-06-28T22:28:34.885Z,3.40
2018-06-28T22:31:01.874Z,3.40
2018-06-28T22:33:28.913Z,3.77
2018-06-28T22:35:55.937Z,3.80
2018-06-28T22:38:22.998Z,5.50
2018-06-28T22:40:49.985Z,3.77
2018-06-28T22:43:17.073Z,3.60
2018-06-28T22:45:44.061Z,3.43
2018-06-28T22:48:11.205Z,3.27
2018-06-28T22:50:38.217Z,3.33
2018-06-28T22:53:05.457Z,3.10
2018-06-28T22:55:32.477Z,2.87
2018-06-28T22:57:59.641Z,3.00
2018-06-28T23:00:28.314Z,3.30
2018-06-28T23:02:55.344Z,3.53
2018-06-28T23:05:22.389Z,2.80
2018-06-28T23:07:49.617Z,2.93
2018-06-28T23:10:16.593Z,2.67
2018-06-28T23:12:43.637Z,3.10
2018-06-28T23:15:10.636Z,2.90
2018-06-28T23:17:37.617Z,2.67
2018-06-28T23:20:04.748Z,3.20
2018-06-28T23:22:50.205Z,2.93
2018-06-28T23:25:17.445Z,3.10
2018-06-28T23:27:45.590Z,2.53
2018-06-28T23:30:12.766Z,2.90
2018-06-28T23:32:39.813Z,2.93
2018-06-28T23:35:07.228Z,3.20
2018-06-28T23:37:34.282Z,3.07
2018-06-28T23:40:01.754Z,3.10
2018-06-28T23:42:29.413Z,3.07
2018-06-28T23:44:56.657Z,2.80
2018-06-28T23:47:23.793Z,2.83
2018-06-28T23:49:50.965Z,2.77
2018-06-28T23:52:18.438Z,2.83
2018-06-28T23:54:45.442Z,3.20
2018-06-28T23:57:12.413Z,2.77
2018-06-28T23:59:39.401Z,2.70
